createdAt,value
2022-11-20T00:01:24.498Z,-4.53
2022-11-20T00:03:52.573Z,-4.56
2022-11-20T00:06:20.152Z,-4.57
2022-11-20T00:08:47.260Z,-4.57
2022-11-20T00:11:20.054Z,-4.59
2022-11-20T00:13:48.631Z,-4.59
2022-11-20T00:16:17.765Z,-4.55
2022-11-20T00:18:45.058Z,-4.47
2022-11-20T00:21:17.177Z,-4.36
2022-11-20T00:23:45.375Z,-4.31
2022-11-20T00:26:14.503Z,-4.32
2022-11-20T00:28:41.749Z,-4.36
2022-11-20T00:31:11.533Z,-4.37
2022-11-20T00:33:38.274Z,-4.29
2022-11-20T00:36:26.449Z,-4.28
2022-11-20T00:38:54.444Z,-4.16
2022-11-20T00:41:21.503Z,-4.15
2022-11-20T00:43:48.176Z,-4.08
2022-11-20T00:46:18.191Z,-4.00
2022-11-20T00:48:45.949Z,-3.91
2022-11-20T00:51:14.612Z,-3.93
2022-11-20T00:53:41.585Z,-3.87
2022-11-20T00:56:12.222Z,-3.86
2022-11-20T00:58:40.361Z,-3.83
2022-11-20T01:01:09.930Z,-3.88
2022-11-20T01:03:38.940Z,-3.87
2022-11-20T01:06:12.128Z,-3.87
2022-11-20T01:08:39.753Z,-3.93
2022-11-20T01:11:12.213Z,-3.83
2022-11-20T01:13:40.250Z,-3.60
2022-11-20T01:16:11.044Z,-3.58
2022-11-20T01:18:39.657Z,-3.67
2022-11-20T01:21:09.223Z,-3.86
2022-11-20T01:23:37.783Z,-3.79
2022-11-20T01:26:06.928Z,-3.79
2022-11-20T01:28:34.112Z,-3.72
2022-11-20T01:31:01.064Z,-3.52
2022-11-20T01:33:28.188Z,-3.50
2022-11-20T01:36:03.646Z,-3.53
2022-11-20T01:38:30.223Z,-3.66
2022-11-20T01:40:57.102Z,-3.59
2022-11-20T01:43:24.808Z,-3.72
2022-11-20T01:46:02.540Z,-3.78
2022-11-20T01:48:35.237Z,-3.85
2022-11-20T01:51:03.600Z,-3.88
2022-11-20T01:53:35.833Z,-3.87
2022-11-20T01:56:05.954Z,-3.88
2022-11-20T01:58:36.594Z,-3.88
2022-11-20T02:01:04.694Z,-3.87
2022-11-20T02:03:32.053Z,-3.80
2022-11-20T02:06:11.638Z,-3.85
2022-11-20T02:08:39.694Z,-3.79
2022-11-20T02:11:06.546Z,-3.65
2022-11-20T02:13:44.268Z,-3.60
2022-11-20T02:16:31.278Z,-3.49
2022-11-20T02:19:01.399Z,-3.50
2022-11-20T02:21:49.381Z,-3.42
2022-11-20T02:24:21.046Z,-3.49
2022-11-20T02:26:52.946Z,-3.54
2022-11-20T02:29:27.731Z,-3.57
2022-11-20T02:31:56.539Z,-3.46
2022-11-20T02:34:23.332Z,-3.34
2022-11-20T02:36:52.733Z,-3.21
2022-11-20T02:39:21.992Z,-3.23
2022-11-20T02:41:48.801Z,-3.29
2022-11-20T02:44:15.496Z,-3.27
2022-11-20T02:46:42.071Z,-3.46
2022-11-20T02:49:08.785Z,-3.63
2022-11-20T02:51:35.483Z,-3.74
2022-11-20T02:54:02.025Z,-3.83
2022-11-20T02:56:28.728Z,-3.89
2022-11-20T02:58:56.698Z,-3.87
2022-11-20T03:01:23.483Z,-3.92
2022-11-20T03:03:50.188Z,-3.95
2022-11-20T03:06:17.749Z,-3.87
2022-11-20T03:08:44.804Z,-3.88
2022-11-20T03:11:11.533Z,-3.77
2022-11-20T03:13:38.396Z,-3.65
2022-11-20T03:16:16.676Z,-3.58
2022-11-20T03:18:43.852Z,-3.52
2022-11-20T03:21:11.897Z,-3.60
2022-11-20T03:23:39.169Z,-3.65
2022-11-20T03:26:26.066Z,-3.76
2022-11-20T03:28:57.618Z,-3.79
2022-11-20T03:31:26.918Z,-3.70
2022-11-20T03:33:53.680Z,-3.82
2022-11-20T03:36:21.452Z,-3.88
2022-11-20T03:38:49.102Z,-3.83
2022-11-20T03:41:20.942Z,-3.72
2022-11-20T03:43:58.465Z,-3.66
2022-11-20T03:46:25.749Z,-3.83
2022-11-20T03:48:52.476Z,-3.87
2022-11-20T03:51:24.199Z,-3.92
2022-11-20T03:53:53.026Z,-3.87
2022-11-20T03:56:23.273Z,-3.81
2022-11-20T03:58:49.802Z,-3.77
2022-11-20T04:01:19.964Z,-3.81
2022-11-20T04:03:47.263Z,-3.82
2022-11-20T04:06:22.853Z,-3.72
2022-11-20T04:08:53.535Z,-3.70
2022-11-20T04:11:21.976Z,-3.80
2022-11-20T04:13:51.644Z,-3.82
2022-11-20T04:16:18.994Z,-3.84
2022-11-20T04:18:45.908Z,-3.72
2022-11-20T04:21:12.922Z,-3.86
2022-11-20T04:23:40.144Z,-4.14
2022-11-20T04:26:09.492Z,-4.27
2022-11-20T04:28:36.674Z,-4.20
2022-11-20T04:31:08.010Z,-4.09
2022-11-20T04:33:35.726Z,-4.12
2022-11-20T04:36:12.179Z,-4.19
2022-11-20T04:38:39.340Z,-4.27
2022-11-20T04:41:08.284Z,-4.33
2022-11-20T04:43:35.510Z,-4.07
2022-11-20T04:46:02.432Z,-4.05
2022-11-20T04:48:30.710Z,-4.20
2022-11-20T04:50:57.783Z,-4.42
2022-11-20T04:53:24.753Z,-4.62
2022-11-20T04:55:51.312Z,-4.73
2022-11-20T04:58:18.212Z,-4.81
2022-11-20T05:00:44.802Z,-4.79
2022-11-20T05:03:11.462Z,-4.75
2022-11-20T05:05:38.165Z,-4.71
2022-11-20T05:08:05.035Z,-4.69
2022-11-20T05:10:31.579Z,-4.64
2022-11-20T05:12:58.671Z,-4.65
2022-11-20T05:15:25.416Z,-4.67
2022-11-20T05:17:53.356Z,-4.75
2022-11-20T05:20:20.690Z,-4.82
2022-11-20T05:22:47.217Z,-4.87
2022-11-20T05:25:13.919Z,-4.89
2022-11-20T05:27:40.478Z,-4.97
2022-11-20T05:30:08.552Z,-5.05
2022-11-20T05:32:35.108Z,-5.03
2022-11-20T05:35:01.757Z,-4.93
2022-11-20T05:37:28.276Z,-4.84
2022-11-20T05:39:54.787Z,-4.87
2022-11-20T05:42:33.183Z,-4.78
2022-11-20T05:45:05.522Z,-4.76
2022-11-20T05:47:34.104Z,-4.76
2022-11-20T05:50:01.376Z,-4.77
2022-11-20T05:52:30.915Z,-4.85
2022-11-20T05:54:58.290Z,-4.76
2022-11-20T05:57:25.048Z,-4.66
2022-11-20T05:59:51.605Z,-4.52
2022-11-20T06:02:18.407Z,-4.45
2022-11-20T06:04:45.078Z,-4.46
2022-11-20T06:07:11.707Z,-4.41
2022-11-20T06:09:38.277Z,-4.36
2022-11-20T06:12:05.180Z,-4.33
2022-11-20T06:14:31.853Z,-4.24
2022-11-20T06:16:58.458Z,-4.27
2022-11-20T06:19:25.071Z,-4.19
2022-11-20T06:21:51.855Z,-4.17
2022-11-20T06:24:18.735Z,-4.19
2022-11-20T06:26:45.880Z,-4.22
2022-11-20T06:29:13.053Z,-4.13
2022-11-20T06:31:40.134Z,-4.04
2022-11-20T06:34:07.784Z,-3.95
2022-11-20T06:36:34.700Z,-3.91
2022-11-20T06:39:01.730Z,-3.89
2022-11-20T06:41:29.374Z,-3.75
2022-11-20T06:43:55.990Z,-3.72
2022-11-20T06:46:23.153Z,-3.60
2022-11-20T06:48:50.478Z,-3.63
2022-11-20T06:51:17.826Z,-3.51
2022-11-20T06:53:44.473Z,-3.51
2022-11-20T06:56:11.080Z,-3.58
2022-11-20T06:58:38.087Z,-3.57
2022-11-20T07:01:07.401Z,-3.54
2022-11-20T07:03:34.250Z,-3.41
2022-11-20T07:06:02.198Z,-3.27
2022-11-20T07:08:29.332Z,-3.07
2022-11-20T07:11:04.644Z,-3.08
2022-11-20T07:13:31.976Z,-3.06
2022-11-20T07:16:07.677Z,-2.96
2022-11-20T07:18:34.653Z,-2.88
2022-11-20T07:21:06.175Z,-2.87
2022-11-20T07:23:33.117Z,-2.62
2022-11-20T07:26:04.092Z,-2.36
2022-11-20T07:28:30.578Z,-2.32
2022-11-20T07:30:57.176Z,-2.22
2022-11-20T07:33:24.280Z,-2.21
2022-11-20T07:35:50.790Z,-2.13
2022-11-20T07:38:17.491Z,-2.13
2022-11-20T07:40:44.221Z,-1.99
2022-11-20T07:43:11.180Z,-1.90
2022-11-20T07:45:37.804Z,-1.82
2022-11-20T07:48:04.665Z,-1.91
2022-11-20T07:50:31.267Z,-1.89
2022-11-20T07:53:07.736Z,-1.65
2022-11-20T07:55:34.704Z,-1.66
2022-11-20T07:58:01.294Z,-1.60
2022-11-20T08:00:28.035Z,-1.59
2022-11-20T08:02:54.974Z,-1.62
2022-11-20T08:05:21.523Z,-1.60
2022-11-20T08:07:48.496Z,-1.68
2022-11-20T08:10:17.235Z,-1.69
2022-11-20T08:13:07.525Z,-1.68
2022-11-20T08:15:34.607Z,-1.63
2022-11-20T08:20:56.559Z,-1.49
2022-11-20T08:23:23.820Z,-1.30
2022-11-20T08:25:51.112Z,-1.10
2022-11-20T08:28:21.427Z,-0.95
2022-11-20T08:30:49.264Z,-1.10
2022-11-20T08:33:15.857Z,-0.97
2022-11-20T08:35:43.555Z,-0.79
2022-11-20T08:38:10.687Z,-0.77
2022-11-20T08:40:37.284Z,-0.87
2022-11-20T08:43:03.972Z,-0.70
2022-11-20T08:45:33.981Z,-0.64
2022-11-20T08:48:02.643Z,-0.78
2022-11-20T08:50:29.373Z,-0.83
2022-11-20T08:52:55.976Z,-0.89
2022-11-20T08:55:22.516Z,-0.82
2022-11-20T08:57:50.956Z,-0.72
2022-11-20T09:00:18.228Z,-0.73
2022-11-20T09:02:44.821Z,-0.63
2022-11-20T09:05:11.397Z,-0.73
2022-11-20T09:07:38.022Z,-0.77
2022-11-20T09:10:23.003Z,-0.92
2022-11-20T09:12:50.529Z,-0.94
2022-11-20T09:15:17.098Z,-0.74
2022-11-20T09:17:43.638Z,-0.71
2022-11-20T09:20:10.722Z,-0.56
2022-11-20T09:22:40.786Z,-0.66
2022-11-20T09:25:07.663Z,-0.98
2022-11-20T09:27:34.294Z,-1.17
2022-11-20T09:30:00.884Z,-0.94
2022-11-20T09:32:27.411Z,-0.58
2022-11-20T09:34:53.904Z,-0.59
2022-11-20T09:37:20.467Z,-0.46
2022-11-20T09:39:46.970Z,-0.45
2022-11-20T09:42:31.485Z,-0.41
2022-11-20T09:45:19.143Z,-0.47
2022-11-20T09:48:02.441Z,-0.67
2022-11-20T09:50:56.943Z,-0.58
2022-11-20T09:53:26.231Z,-0.23
2022-11-20T09:55:52.857Z,-0.09
2022-11-20T09:58:33.380Z,0.10
2022-11-20T10:01:11.627Z,0.19
2022-11-20T10:04:05.934Z,0.08
2022-11-20T10:06:33.607Z,0.14
2022-11-20T10:09:20.612Z,0.71
2022-11-20T10:12:05.896Z,0.91
2022-11-20T10:14:48.494Z,1.06
2022-11-20T10:17:34.931Z,0.91
2022-11-20T10:20:26.623Z,0.77
2022-11-20T10:23:15.037Z,0.68
2022-11-20T10:25:50.615Z,0.72
2022-11-20T10:28:26.843Z,0.90
2022-11-20T10:31:04.891Z,0.89
2022-11-20T10:33:50.417Z,1.31
2022-11-20T10:36:42.921Z,1.79
2022-11-20T10:39:28.015Z,1.88
2022-11-20T10:41:54.816Z,1.82
2022-11-20T10:44:45.236Z,1.83
2022-11-20T10:47:17.417Z,1.93
2022-11-20T10:49:49.476Z,1.99
2022-11-20T10:52:48.780Z,1.83
2022-11-20T10:55:40.169Z,1.91
2022-11-20T10:58:36.323Z,1.96
2022-11-20T11:01:24.366Z,2.03
2022-11-20T11:03:54.343Z,1.96
2022-11-20T11:06:43.030Z,1.73
2022-11-20T11:09:20.391Z,1.88
2022-11-20T11:11:47.252Z,1.75
2022-11-20T11:14:16.117Z,2.04
2022-11-20T11:16:57.272Z,1.99
2022-11-20T11:19:24.798Z,2.09
2022-11-20T11:21:55.781Z,2.24
2022-11-20T11:24:45.737Z,2.31
2022-11-20T11:27:18.023Z,2.34
2022-11-20T11:29:45.438Z,2.02
2022-11-20T11:32:21.580Z,1.74
2022-11-20T11:35:25.217Z,1.92
2022-11-20T11:37:55.070Z,2.15
2022-11-20T11:40:24.620Z,2.29
2022-11-20T11:43:02.297Z,2.50
2022-11-20T11:45:29.531Z,2.13
2022-11-20T11:47:59.603Z,2.20
2022-11-20T11:50:28.186Z,2.50
2022-11-20T11:53:13.162Z,2.68
2022-11-20T11:55:51.648Z,2.93
2022-11-20T11:58:35.823Z,2.87
2022-11-20T12:01:28.841Z,2.83
2022-11-20T12:04:11.300Z,2.93
2022-11-20T12:06:40.234Z,2.65
2022-11-20T12:09:11.172Z,2.39
2022-11-20T12:12:05.983Z,1.81
2022-11-20T12:14:40.378Z,2.09
2022-11-20T12:17:11.861Z,2.34
2022-11-20T12:19:38.585Z,1.74
2022-11-20T12:22:41.924Z,1.56
2022-11-20T12:25:16.748Z,1.54
2022-11-20T12:28:07.216Z,1.49
2022-11-20T12:30:39.584Z,1.74
2022-11-20T12:33:18.431Z,1.54
2022-11-20T12:35:57.146Z,1.56
2022-11-20T12:38:49.295Z,1.55
2022-11-20T12:41:40.297Z,1.57
2022-11-20T12:45:00.043Z,1.68
2022-11-20T12:48:00.341Z,1.53
2022-11-20T12:51:15.945Z,1.27
2022-11-20T12:53:45.490Z,0.94
2022-11-20T12:56:17.720Z,0.92
2022-11-20T12:59:08.688Z,0.96
2022-11-20T13:01:51.339Z,0.90
2022-11-20T13:04:31.350Z,0.92
2022-11-20T13:06:58.687Z,0.99
2022-11-20T13:09:26.003Z,1.00
2022-11-20T13:12:09.857Z,0.91
2022-11-20T13:14:46.189Z,0.94
2022-11-20T13:17:19.068Z,1.01
2022-11-20T13:19:57.073Z,1.19
2022-11-20T13:22:44.224Z,1.64
2022-11-20T13:25:16.294Z,2.14
2022-11-20T13:27:50.156Z,2.15
2022-11-20T13:30:19.835Z,2.33
2022-11-20T13:33:09.490Z,2.34
2022-11-20T13:35:41.405Z,2.31
2022-11-20T13:38:12.426Z,2.05
2022-11-20T13:40:52.934Z,2.27
2022-11-20T13:43:30.080Z,2.57
2022-11-20T13:46:06.180Z,2.54
2022-11-20T13:48:42.366Z,2.33
2022-11-20T13:51:27.539Z,2.32
2022-11-20T13:54:06.106Z,2.19
2022-11-20T13:56:48.939Z,2.19
2022-11-20T13:59:47.278Z,2.14
2022-11-20T14:02:23.122Z,2.02
2022-11-20T14:04:53.161Z,1.95
2022-11-20T14:07:24.699Z,1.75
2022-11-20T14:09:58.828Z,1.63
2022-11-20T14:12:35.260Z,1.47
2022-11-20T14:15:01.961Z,1.31
2022-11-20T14:17:36.386Z,1.28
2022-11-20T14:20:06.022Z,1.01
2022-11-20T14:22:32.733Z,0.93
2022-11-20T14:25:13.049Z,0.78
2022-11-20T14:27:42.849Z,0.80
2022-11-20T14:30:18.098Z,0.61
2022-11-20T14:32:45.963Z,0.50
2022-11-20T14:35:22.672Z,0.38
2022-11-20T14:37:49.416Z,0.29
2022-11-20T14:40:28.228Z,0.15
2022-11-20T14:42:54.960Z,-0.07
2022-11-20T14:45:22.962Z,-0.19
2022-11-20T14:47:50.431Z,-0.32
2022-11-20T14:50:24.804Z,-0.48
2022-11-20T14:53:09.474Z,-0.60
2022-11-20T14:55:39.640Z,-0.72
2022-11-20T14:58:21.239Z,-0.79
2022-11-20T15:00:59.999Z,-0.91
2022-11-20T15:03:38.298Z,-1.05
2022-11-20T15:06:07.148Z,-1.17
2022-11-20T15:08:35.034Z,-1.28
2022-11-20T15:11:01.699Z,-1.39
2022-11-20T15:13:31.940Z,-1.51
2022-11-20T15:16:02.634Z,-1.64
2022-11-20T15:18:33.332Z,-1.77
2022-11-20T15:21:04.319Z,-1.85
2022-11-20T15:23:30.929Z,-1.87
2022-11-20T15:25:57.692Z,-1.90
2022-11-20T15:28:32.738Z,-2.00
2022-11-20T15:30:59.436Z,-2.01
2022-11-20T15:33:25.964Z,-2.08
2022-11-20T15:35:52.754Z,-2.20
2022-11-20T15:38:19.365Z,-2.32
2022-11-20T15:40:45.913Z,-2.42
2022-11-20T15:43:13.858Z,-2.51
2022-11-20T15:45:50.545Z,-2.43
2022-11-20T15:48:27.402Z,-2.34
2022-11-20T15:51:12.341Z,-2.24
2022-11-20T15:53:41.136Z,-2.17
2022-11-20T15:56:12.660Z,-2.25
2022-11-20T15:58:39.701Z,-2.25
2022-11-20T16:01:06.416Z,-2.22
2022-11-20T16:03:32.971Z,-2.08
2022-11-20T16:05:59.511Z,-1.99
2022-11-20T16:08:26.435Z,-2.04
2022-11-20T16:10:53.007Z,-2.08
2022-11-20T16:13:37.847Z,-2.15
2022-11-20T16:16:12.689Z,-2.21
2022-11-20T16:18:39.299Z,-2.23
2022-11-20T16:21:11.574Z,-2.17
2022-11-20T16:23:38.123Z,-2.12
2022-11-20T16:26:12.193Z,-2.06
2022-11-20T16:28:38.746Z,-1.95
2022-11-20T16:31:13.501Z,-2.03
2022-11-20T16:33:40.288Z,-2.09
2022-11-20T16:36:15.115Z,-2.17
2022-11-20T16:38:42.194Z,-2.30
2022-11-20T16:41:18.591Z,-2.33
2022-11-20T16:43:50.498Z,-2.26
2022-11-20T16:46:19.173Z,-2.28
2022-11-20T16:48:46.774Z,-2.26
2022-11-20T16:51:13.366Z,-2.17
2022-11-20T16:53:40.846Z,-2.17
2022-11-20T16:56:17.342Z,-2.16
2022-11-20T16:58:44.887Z,-2.16
2022-11-20T17:01:14.625Z,-2.08
2022-11-20T17:03:42.728Z,-2.09
2022-11-20T17:06:14.506Z,-2.09
2022-11-20T17:08:41.480Z,-2.23
2022-11-20T17:11:09.685Z,-2.28
2022-11-20T17:13:39.974Z,-2.44
2022-11-20T17:16:09.493Z,-2.59
2022-11-20T17:18:36.553Z,-2.79
2022-11-20T17:21:05.516Z,-2.96
2022-11-20T17:23:33.423Z,-3.00
2022-11-20T17:26:08.310Z,-2.98
2022-11-20T17:28:35.804Z,-2.90
2022-11-20T17:31:08.354Z,-2.82
2022-11-20T17:33:36.892Z,-2.81
2022-11-20T17:36:04.816Z,-2.85
2022-11-20T17:38:31.501Z,-2.94
2022-11-20T17:41:06.335Z,-2.92
2022-11-20T17:43:35.882Z,-2.73
2022-11-20T17:46:14.440Z,-2.88
2022-11-20T17:48:45.143Z,-3.03
2022-11-20T17:51:24.650Z,-3.09
2022-11-20T17:53:53.850Z,-3.09
2022-11-20T17:56:40.852Z,-3.14
2022-11-20T17:59:10.985Z,-3.17
2022-11-20T18:01:39.376Z,-3.14
2022-11-20T18:04:06.564Z,-3.13
2022-11-20T18:06:33.506Z,-3.09
2022-11-20T18:09:01.579Z,-3.10
2022-11-20T18:11:33.720Z,-3.18
2022-11-20T18:14:20.569Z,-3.23
2022-11-20T18:16:51.966Z,-3.22
2022-11-20T18:19:24.579Z,-3.28
2022-11-20T18:21:51.317Z,-3.30
2022-11-20T18:24:18.271Z,-3.29
2022-11-20T18:26:45.162Z,-3.25
2022-11-20T18:29:13.748Z,-3.24
2022-11-20T18:31:41.493Z,-3.30
2022-11-20T18:34:12.257Z,-3.41
2022-11-20T18:36:38.892Z,-3.62
2022-11-20T18:39:05.937Z,-3.59
2022-11-20T18:41:51.305Z,-3.64
2022-11-20T18:44:42.058Z,-3.65
2022-11-20T18:47:14.544Z,-3.57
2022-11-20T18:49:43.102Z,-3.70
2022-11-20T18:52:09.678Z,-3.66
2022-11-20T18:54:37.087Z,-3.77
2022-11-20T18:57:05.310Z,-3.79
2022-11-20T18:59:32.260Z,-3.77
2022-11-20T19:01:59.064Z,-3.83
2022-11-20T19:04:26.372Z,-3.77
2022-11-20T19:06:56.220Z,-3.77
2022-11-20T19:09:24.181Z,-3.83
2022-11-20T19:11:51.601Z,-3.81
2022-11-20T19:14:18.592Z,-3.78
2022-11-20T19:16:45.267Z,-3.77
2022-11-20T19:19:12.004Z,-3.83
2022-11-20T19:21:38.635Z,-3.88
2022-11-20T19:24:05.563Z,-3.91
2022-11-20T19:26:35.540Z,-3.86
2022-11-20T19:29:03.603Z,-3.84
2022-11-20T19:31:30.451Z,-3.83
2022-11-20T19:34:02.509Z,-3.78
2022-11-20T19:36:34.758Z,-3.80
2022-11-20T19:39:02.381Z,-3.72
2022-11-20T19:41:31.466Z,-3.80
2022-11-20T19:43:59.844Z,-3.81
2022-11-20T19:46:28.272Z,-3.78
2022-11-20T19:48:55.596Z,-3.79
2022-11-20T19:51:29.868Z,-3.83
2022-11-20T19:53:57.651Z,-3.87
2022-11-20T19:56:25.612Z,-3.93
2022-11-20T19:58:56.190Z,-3.91
2022-11-20T20:01:28.805Z,-4.12
2022-11-20T20:03:56.796Z,-3.96
2022-11-20T20:06:26.316Z,-4.14
2022-11-20T20:09:09.254Z,-4.16
2022-11-20T20:11:36.751Z,-4.10
2022-11-20T20:14:08.665Z,-3.94
2022-11-20T20:16:35.582Z,-3.85
2022-11-20T20:19:03.737Z,-3.91
2022-11-20T20:21:31.793Z,-3.89
2022-11-20T20:24:00.864Z,-3.85
2022-11-20T20:26:29.661Z,-3.86
2022-11-20T20:28:56.435Z,-3.90
2022-11-20T20:31:27.099Z,-3.99
2022-11-20T20:33:54.434Z,-4.04
2022-11-20T20:36:22.968Z,-4.11
2022-11-20T20:38:57.328Z,-4.17
2022-11-20T20:41:25.085Z,-4.07
2022-11-20T20:44:10.908Z,-4.06
2022-11-20T20:46:37.634Z,-4.12
2022-11-20T20:49:05.416Z,-4.16
2022-11-20T20:51:32.011Z,-4.23
2022-11-20T20:53:59.377Z,-4.10
2022-11-20T20:56:26.356Z,-3.99
2022-11-20T20:58:52.901Z,-3.84
2022-11-20T21:01:20.840Z,-3.60
2022-11-20T21:03:47.455Z,-3.60
2022-11-20T21:06:14.633Z,-3.75
2022-11-20T21:08:43.605Z,-3.83
2022-11-20T21:11:16.544Z,-3.84
2022-11-20T21:13:44.669Z,-3.84
2022-11-20T21:16:12.566Z,-3.80
2022-11-20T21:18:39.176Z,-3.83
2022-11-20T21:21:26.523Z,-3.81
2022-11-20T21:23:53.753Z,-3.83
2022-11-20T21:26:21.259Z,-3.86
2022-11-20T21:28:49.973Z,-3.97
2022-11-20T21:31:27.320Z,-3.88
2022-11-20T21:33:55.958Z,-3.85
2022-11-20T21:36:25.814Z,-3.96
2022-11-20T21:38:56.932Z,-4.05
2022-11-20T21:41:24.942Z,-4.07
2022-11-20T21:44:23.545Z,-3.90
2022-11-20T21:46:41.685Z,-3.90
2022-11-20T21:49:08.472Z,-3.97
2022-11-20T21:51:35.379Z,-3.97
2022-11-20T21:54:02.117Z,-3.73
2022-11-20T21:56:28.641Z,-3.67
2022-11-20T21:58:55.538Z,-3.70
2022-11-20T22:01:23.535Z,-3.82
2022-11-20T22:03:52.969Z,-4.02
2022-11-20T22:06:21.391Z,-4.22
2022-11-20T22:08:48.984Z,-4.15
2022-11-20T22:11:18.027Z,-4.25
2022-11-20T22:14:03.063Z,-4.11
2022-11-20T22:16:30.114Z,-3.97
2022-11-20T22:18:58.061Z,-3.95
2022-11-20T22:21:28.091Z,-3.77
2022-11-20T22:23:55.266Z,-3.57
2022-11-20T22:26:24.206Z,-3.36
2022-11-20T22:28:53.620Z,-3.34
2022-11-20T22:31:21.770Z,-3.28
2022-11-20T22:33:48.677Z,-3.20
2022-11-20T22:36:17.535Z,-3.07
2022-11-20T22:38:44.264Z,-3.37
2022-11-20T22:41:18.686Z,-3.99
2022-11-20T22:43:45.972Z,-4.52
2022-11-20T22:46:15.536Z,-4.49
2022-11-20T22:48:49.715Z,-4.25
2022-11-20T22:51:17.868Z,-4.14
2022-11-20T22:53:44.710Z,-4.01
2022-11-20T22:56:15.328Z,-4.08
2022-11-20T22:58:44.798Z,-4.11
2022-11-20T23:01:16.403Z,-4.18
2022-11-20T23:03:45.396Z,-4.13
2022-11-20T23:06:13.209Z,-4.60
2022-11-20T23:08:41.642Z,-4.81
2022-11-20T23:11:13.639Z,-4.67
2022-11-20T23:13:41.191Z,-4.46
2022-11-20T23:16:11.220Z,-4.29
2022-11-20T23:18:38.269Z,-4.14
2022-11-20T23:21:10.751Z,-4.05
2022-11-20T23:23:37.699Z,-4.02
2022-11-20T23:26:09.356Z,-3.96
2022-11-20T23:28:36.811Z,-4.02
2022-11-20T23:31:03.998Z,-4.11
2022-11-20T23:33:30.895Z,-4.11
2022-11-20T23:35:57.762Z,-4.00
2022-11-20T23:38:24.303Z,-3.96
2022-11-20T23:40:52.014Z,-3.94
2022-11-20T23:43:20.718Z,-3.83
2022-11-20T23:45:52.107Z,-3.76
2022-11-20T23:48:20.117Z,-3.72
2022-11-20T23:50:46.900Z,-3.68
2022-11-20T23:53:14.671Z,-3.54
2022-11-20T23:55:46.605Z,-3.68
2022-11-20T23:58:13.931Z,-3.90
